createdAt,value
2019-02-25T00:00:21.582Z,0.00
2019-02-25T00:01:21.573Z,0.00
2019-02-25T00:02:21.560Z,0.00
2019-02-25T00:03:21.550Z,0.00
2019-02-25T00:04:21.724Z,0.00
2019-02-25T00:05:21.559Z,0.00
2019-02-25T00:06:21.522Z,0.00
2019-02-25T00:07:21.562Z,0.00
2019-02-25T00:08:21.496Z,0.00
2019-02-25T00:09:21.486Z,0.00
2019-02-25T00:10:21.574Z,0.00
2019-02-25T00:11:21.468Z,0.00
2019-02-25T00:12:21.458Z,0.00
2019-02-25T00:13:21.443Z,0.00
2019-02-25T00:14:21.434Z,0.00
2019-02-25T00:15:21.422Z,0.00
2019-02-25T00:16:21.510Z,0.00
2019-02-25T00:17:21.399Z,0.00
2019-02-25T00:18:21.389Z,0.00
2019-02-25T00:19:21.377Z,0.00
2019-02-25T00:20:21.373Z,0.00
2019-02-25T00:21:21.365Z,0.00
2019-02-25T00:22:21.635Z,0.00
2019-02-25T00:23:21.335Z,0.00
2019-02-25T00:24:21.324Z,0.00
2019-02-25T00:25:21.313Z,0.00
2019-02-25T00:26:21.303Z,0.00
2019-02-25T00:27:21.297Z,0.00
2019-02-25T00:28:21.381Z,0.00
2019-02-25T00:29:21.269Z,0.00
2019-02-25T00:30:21.292Z,0.00
2019-02-25T00:31:21.249Z,0.00
2019-02-25T00:32:21.244Z,0.00
2019-02-25T00:33:21.231Z,0.00
2019-02-25T00:34:21.322Z,0.00
2019-02-25T00:35:21.209Z,0.00
2019-02-25T00:36:21.195Z,0.00
2019-02-25T00:37:21.185Z,0.00
2019-02-25T00:38:21.178Z,0.00
2019-02-25T00:39:21.164Z,0.00
2019-02-25T00:40:21.443Z,0.00
2019-02-25T00:41:21.140Z,0.00
2019-02-25T00:42:21.129Z,0.00
2019-02-25T00:43:21.123Z,0.00
2019-02-25T00:44:21.110Z,0.00
2019-02-25T00:45:21.100Z,0.00
2019-02-25T00:46:21.216Z,0.00
2019-02-25T00:47:21.076Z,0.00
2019-02-25T00:48:21.079Z,0.00
2019-02-25T00:49:21.054Z,0.00
2019-02-25T00:50:21.046Z,0.00
2019-02-25T00:51:21.032Z,0.00
2019-02-25T00:52:21.208Z,0.00
2019-02-25T00:53:21.013Z,0.00
2019-02-25T00:54:21.601Z,0.00
2019-02-25T00:55:20.991Z,0.00
2019-02-25T00:56:20.978Z,0.00
2019-02-25T00:57:20.970Z,0.00
2019-02-25T00:58:21.080Z,0.00
2019-02-25T00:59:20.945Z,0.00
2019-02-25T01:00:20.936Z,0.00
2019-02-25T01:01:20.956Z,0.00
2019-02-25T01:02:20.918Z,0.00
2019-02-25T01:03:20.902Z,0.00
2019-02-25T01:04:21.106Z,0.00
2019-02-25T01:05:20.878Z,0.00
2019-02-25T01:06:20.918Z,0.00
2019-02-25T01:07:20.859Z,0.00
2019-02-25T01:08:20.847Z,0.00
2019-02-25T01:09:20.837Z,0.00
2019-02-25T01:10:20.931Z,0.00
2019-02-25T01:11:20.814Z,0.00
2019-02-25T01:12:20.804Z,0.00
2019-02-25T01:13:20.793Z,0.00
2019-02-25T01:14:20.785Z,0.00
2019-02-25T01:15:20.781Z,0.00
2019-02-25T01:16:20.883Z,0.00
2019-02-25T01:17:20.749Z,0.00
2019-02-25T01:18:20.741Z,0.00
2019-02-25T01:19:20.729Z,0.00
2019-02-25T01:20:20.718Z,0.00
2019-02-25T01:21:20.706Z,0.00
2019-02-25T01:22:20.794Z,0.00
2019-02-25T01:23:20.684Z,0.00
2019-02-25T01:24:20.672Z,0.00
2019-02-25T01:25:20.663Z,0.00
2019-02-25T01:26:20.652Z,0.00
2019-02-25T01:27:20.646Z,0.00
2019-02-25T01:28:20.941Z,0.00
2019-02-25T01:29:20.618Z,0.00
2019-02-25T01:30:20.608Z,0.00
2019-02-25T01:31:20.598Z,0.00
2019-02-25T01:32:20.586Z,0.00
2019-02-25T01:33:20.578Z,0.00
2019-02-25T01:34:20.739Z,0.00
2019-02-25T01:35:20.559Z,0.00
2019-02-25T01:36:20.543Z,0.00
2019-02-25T01:37:20.533Z,0.00
2019-02-25T01:38:20.523Z,0.00
2019-02-25T01:39:20.553Z,0.00
2019-02-25T01:40:21.146Z,0.00
2019-02-25T01:41:20.488Z,0.00
2019-02-25T01:42:20.476Z,0.00
2019-02-25T01:43:20.469Z,0.00
2019-02-25T01:44:20.460Z,0.00
2019-02-25T01:45:20.460Z,0.00
2019-02-25T01:46:20.536Z,0.00
2019-02-25T01:47:20.422Z,0.00
2019-02-25T01:48:20.410Z,0.00
2019-02-25T01:49:20.401Z,0.00
2019-02-25T01:50:20.391Z,0.00
2019-02-25T01:51:22.120Z,0.00
2019-02-25T01:52:20.638Z,0.00
2019-02-25T01:53:20.356Z,0.00
2019-02-25T01:54:20.347Z,0.00
2019-02-25T01:55:20.389Z,0.00
2019-02-25T01:56:20.330Z,0.00
2019-02-25T01:57:20.313Z,0.00
2019-02-25T01:58:20.435Z,0.00
2019-02-25T01:59:20.294Z,0.00
2019-02-25T02:00:20.285Z,0.00
2019-02-25T02:01:20.268Z,0.00
2019-02-25T02:02:20.263Z,0.00
2019-02-25T02:03:20.248Z,0.00
2019-02-25T02:04:20.369Z,0.00
2019-02-25T02:05:20.290Z,0.00
2019-02-25T02:06:20.219Z,0.00
2019-02-25T02:07:20.211Z,0.00
2019-02-25T02:08:20.198Z,0.00
2019-02-25T02:09:20.193Z,0.00
2019-02-25T02:10:20.488Z,0.00
2019-02-25T02:11:20.163Z,0.00
2019-02-25T02:12:20.154Z,0.00
2019-02-25T02:13:20.140Z,0.00
2019-02-25T02:14:20.128Z,0.00
2019-02-25T02:15:20.122Z,0.00
2019-02-25T02:16:20.444Z,0.00
2019-02-25T02:17:20.153Z,0.00
2019-02-25T02:18:20.092Z,0.00
2019-02-25T02:19:20.075Z,0.00
2019-02-25T02:20:20.062Z,0.00
2019-02-25T02:21:20.052Z,0.00
2019-02-25T02:22:20.151Z,0.00
2019-02-25T02:23:20.032Z,0.00
2019-02-25T02:24:20.019Z,0.00
2019-02-25T02:25:20.012Z,0.00
2019-02-25T02:26:21.121Z,0.00
2019-02-25T02:27:19.987Z,0.00
2019-02-25T02:28:20.083Z,0.00
2019-02-25T02:29:19.967Z,0.00
2019-02-25T02:30:19.958Z,0.00
2019-02-25T02:31:19.947Z,0.00
2019-02-25T02:32:19.935Z,0.00
2019-02-25T02:33:19.923Z,0.00
2019-02-25T02:34:20.194Z,0.00
2019-02-25T02:35:19.927Z,0.00
2019-02-25T02:36:19.889Z,0.00
2019-02-25T02:37:19.877Z,0.00
2019-02-25T02:38:19.868Z,0.00
2019-02-25T02:39:19.857Z,0.00
2019-02-25T02:40:19.967Z,0.00
2019-02-25T02:41:19.834Z,0.00
2019-02-25T02:42:19.826Z,0.00
2019-02-25T02:43:19.812Z,0.00
2019-02-25T02:44:19.805Z,0.00
2019-02-25T02:45:19.824Z,0.00
2019-02-25T02:46:19.888Z,0.00
2019-02-25T02:47:19.770Z,0.00
2019-02-25T02:48:19.761Z,0.00
2019-02-25T02:49:19.747Z,0.00
2019-02-25T02:50:19.753Z,0.00
2019-02-25T02:51:19.727Z,0.00
2019-02-25T02:52:19.928Z,0.00
2019-02-25T02:53:19.705Z,0.00
2019-02-25T02:54:19.702Z,0.00
2019-02-25T02:55:19.682Z,0.00
2019-02-25T02:56:19.672Z,0.00
2019-02-25T02:57:19.664Z,0.00
2019-02-25T02:58:19.760Z,0.00
2019-02-25T02:59:19.639Z,0.00
2019-02-25T03:00:19.631Z,0.00
2019-02-25T03:01:19.617Z,0.00
2019-02-25T03:02:19.606Z,0.00
2019-02-25T03:03:19.596Z,0.00
2019-02-25T03:04:19.717Z,0.00
2019-02-25T03:05:19.576Z,0.00
2019-02-25T03:06:19.570Z,0.00
2019-02-25T03:07:19.556Z,0.00
2019-02-25T03:08:19.540Z,0.00
2019-02-25T03:09:19.529Z,0.00
2019-02-25T03:10:19.652Z,0.00
2019-02-25T03:11:19.519Z,0.00
2019-02-25T03:12:19.499Z,0.00
2019-02-25T03:13:19.488Z,0.00
2019-02-25T03:14:19.480Z,0.00
2019-02-25T03:15:19.468Z,0.00
2019-02-25T03:16:19.687Z,0.00
2019-02-25T03:17:19.442Z,0.00
2019-02-25T03:18:19.431Z,0.00
2019-02-25T03:19:19.422Z,0.00
2019-02-25T03:20:19.416Z,0.00
2019-02-25T03:21:19.399Z,0.00
2019-02-25T03:22:20.111Z,0.00
2019-02-25T03:23:19.377Z,0.00
2019-02-25T03:24:19.367Z,0.00
2019-02-25T03:25:19.363Z,0.00
2019-02-25T03:26:19.350Z,0.00
2019-02-25T03:27:19.336Z,0.00
2019-02-25T03:28:19.427Z,0.00
2019-02-25T03:29:19.313Z,0.00
2019-02-25T03:30:19.304Z,0.00
2019-02-25T03:31:19.406Z,0.00
2019-02-25T03:32:19.281Z,0.00
2019-02-25T03:33:19.274Z,0.00
2019-02-25T03:34:19.367Z,0.00
2019-02-25T03:35:19.247Z,0.00
2019-02-25T03:36:19.251Z,0.00
2019-02-25T03:37:19.230Z,0.00
2019-02-25T03:38:19.213Z,0.00
2019-02-25T03:39:19.208Z,0.00
2019-02-25T03:40:19.288Z,0.00
2019-02-25T03:41:19.181Z,0.00
2019-02-25T03:42:19.183Z,0.00
2019-02-25T03:43:19.163Z,0.00
2019-02-25T03:44:19.149Z,0.00
2019-02-25T03:45:19.141Z,0.00
2019-02-25T03:46:19.403Z,0.00
2019-02-25T03:47:19.123Z,0.00
2019-02-25T03:48:19.113Z,0.00
2019-02-25T03:49:19.104Z,0.00
2019-02-25T03:50:19.083Z,0.00
2019-02-25T03:51:19.074Z,0.00
2019-02-25T03:52:19.174Z,0.00
2019-02-25T03:53:19.051Z,0.00
2019-02-25T03:54:19.041Z,0.00
2019-02-25T03:55:19.069Z,0.00
2019-02-25T03:56:19.045Z,0.00
2019-02-25T03:57:19.012Z,0.00
2019-02-25T03:58:19.108Z,0.00
2019-02-25T03:59:18.987Z,0.00
2019-02-25T04:00:18.977Z,0.00
2019-02-25T04:01:18.964Z,0.00
2019-02-25T04:02:18.958Z,0.00
2019-02-25T04:03:18.945Z,0.00
2019-02-25T04:04:19.142Z,0.00
2019-02-25T04:05:18.927Z,0.00
2019-02-25T04:06:18.911Z,0.00
2019-02-25T04:07:18.901Z,0.00
2019-02-25T04:08:18.886Z,0.00
2019-02-25T04:09:18.876Z,0.00
2019-02-25T04:10:18.976Z,0.00
2019-02-25T04:11:18.857Z,0.00
2019-02-25T04:12:18.850Z,0.00
2019-02-25T04:13:18.849Z,0.00
2019-02-25T04:14:18.825Z,4.00
2019-02-25T04:15:18.818Z,4.00
2019-02-25T04:16:18.916Z,4.00
2019-02-25T04:17:18.790Z,0.00
2019-02-25T04:18:18.780Z,4.00
2019-02-25T04:19:18.786Z,4.00
2019-02-25T04:20:18.770Z,4.00
2019-02-25T04:21:18.860Z,0.00
2019-02-25T04:22:18.948Z,4.00
2019-02-25T04:23:18.726Z,4.00
2019-02-25T04:24:18.717Z,8.00
2019-02-25T04:25:18.705Z,4.00
2019-02-25T04:26:18.697Z,4.00
2019-02-25T04:27:18.699Z,8.00
2019-02-25T04:28:18.768Z,4.00
2019-02-25T04:29:18.661Z,8.00
2019-02-25T04:30:18.650Z,8.00
2019-02-25T04:31:18.639Z,8.00
2019-02-25T04:32:18.629Z,8.00
2019-02-25T04:33:18.620Z,8.00
2019-02-25T04:34:18.699Z,8.00
2019-02-25T04:35:18.592Z,12.00
2019-02-25T04:36:18.604Z,12.00
2019-02-25T04:37:18.571Z,12.00
2019-02-25T04:38:18.568Z,12.00
2019-02-25T04:39:18.554Z,12.00
2019-02-25T04:40:18.736Z,12.00
2019-02-25T04:41:18.529Z,12.00
2019-02-25T04:42:18.520Z,16.00
2019-02-25T04:43:18.510Z,16.00
2019-02-25T04:44:18.510Z,16.00
2019-02-25T04:45:18.486Z,16.00
2019-02-25T04:46:18.652Z,20.00
2019-02-25T04:47:18.464Z,16.00
2019-02-25T04:48:18.459Z,20.00
2019-02-25T04:49:18.443Z,20.00
2019-02-25T04:50:18.433Z,20.00
2019-02-25T04:51:18.422Z,20.00
2019-02-25T04:52:18.506Z,20.00
2019-02-25T04:53:18.399Z,20.00
2019-02-25T04:54:18.389Z,24.00
2019-02-25T04:55:18.377Z,24.00
2019-02-25T04:56:18.367Z,24.00
2019-02-25T04:57:18.363Z,24.00
2019-02-25T04:58:18.442Z,28.00
2019-02-25T04:59:18.340Z,24.00
2019-02-25T05:00:18.326Z,28.00
2019-02-25T05:01:18.316Z,28.00
2019-02-25T05:02:18.302Z,28.00
2019-02-25T05:03:18.290Z,28.00
2019-02-25T05:04:18.601Z,32.00
2019-02-25T05:05:18.269Z,32.00
2019-02-25T05:06:18.258Z,32.00
2019-02-25T05:07:18.254Z,32.00
2019-02-25T05:08:18.236Z,32.00
2019-02-25T05:09:18.223Z,32.00
2019-02-25T05:10:18.335Z,32.00
2019-02-25T05:11:18.223Z,36.00
2019-02-25T05:12:18.195Z,36.00
2019-02-25T05:13:18.181Z,36.00
2019-02-25T05:14:18.176Z,36.00
2019-02-25T05:15:18.161Z,40.00
2019-02-25T05:16:18.249Z,36.00
2019-02-25T05:17:18.145Z,40.00
2019-02-25T05:18:18.127Z,40.00
2019-02-25T05:19:18.120Z,40.00
2019-02-25T05:20:18.105Z,40.00
2019-02-25T05:21:18.094Z,44.00
2019-02-25T05:22:18.255Z,40.00
2019-02-25T05:23:18.076Z,44.00
2019-02-25T05:24:18.063Z,40.00
2019-02-25T05:25:18.052Z,44.00
2019-02-25T05:26:18.040Z,44.00
2019-02-25T05:27:18.098Z,44.00
2019-02-25T05:28:18.119Z,48.00
2019-02-25T05:29:18.058Z,44.00
2019-02-25T05:30:18.023Z,48.00
2019-02-25T05:31:17.989Z,48.00
2019-02-25T05:32:17.977Z,44.00
2019-02-25T05:33:17.969Z,48.00
2019-02-25T05:34:18.052Z,48.00
2019-02-25T05:35:17.946Z,48.00
2019-02-25T05:36:17.938Z,48.00
2019-02-25T05:37:17.924Z,48.00
2019-02-25T05:38:17.918Z,48.00
2019-02-25T05:39:17.900Z,48.00
2019-02-25T05:40:18.075Z,52.00
2019-02-25T05:41:17.883Z,52.00
2019-02-25T05:42:17.891Z,56.00
2019-02-25T05:43:17.861Z,56.00
2019-02-25T05:44:17.849Z,52.00
2019-02-25T05:45:17.833Z,56.00
2019-02-25T05:46:17.927Z,56.00
2019-02-25T05:47:17.817Z,56.00
2019-02-25T05:48:17.802Z,60.00
2019-02-25T05:49:17.795Z,60.00
2019-02-25T05:50:17.779Z,60.00
2019-02-25T05:51:17.767Z,60.00
2019-02-25T05:52:17.868Z,60.00
2019-02-25T05:53:17.757Z,60.00
2019-02-25T05:54:17.735Z,60.00
2019-02-25T05:55:17.724Z,60.00
2019-02-25T05:56:17.717Z,60.00
2019-02-25T05:57:17.705Z,60.00
2019-02-25T05:58:17.877Z,56.00
2019-02-25T05:59:17.685Z,60.00
2019-02-25T06:00:17.672Z,56.00
2019-02-25T06:01:18.523Z,48.00
2019-02-25T06:02:17.659Z,52.00
2019-02-25T06:03:17.662Z,56.00
2019-02-25T06:04:17.969Z,56.00
2019-02-25T06:05:18.125Z,64.00
2019-02-25T06:06:17.626Z,68.00
2019-02-25T06:07:18.537Z,68.00
2019-02-25T06:08:17.595Z,68.00
2019-02-25T06:09:17.575Z,68.00
2019-02-25T06:10:17.674Z,68.00
2019-02-25T06:11:17.613Z,68.00
2019-02-25T06:12:17.539Z,68.00
2019-02-25T06:13:17.530Z,68.00
2019-02-25T06:14:18.152Z,72.00
2019-02-25T06:15:17.518Z,68.00
2019-02-25T06:16:17.738Z,68.00
2019-02-25T06:17:17.494Z,68.00
2019-02-25T06:18:17.481Z,68.00
2019-02-25T06:19:17.467Z,68.00
2019-02-25T06:20:17.471Z,72.00
2019-02-25T06:21:17.461Z,68.00
2019-02-25T06:22:17.750Z,72.00
2019-02-25T06:23:17.426Z,72.00
2019-02-25T06:24:18.025Z,72.00
2019-02-25T06:25:17.413Z,68.00
2019-02-25T06:26:18.022Z,72.00
2019-02-25T06:27:17.380Z,76.00
2019-02-25T06:28:18.027Z,68.00
2019-02-25T06:29:17.360Z,64.00
2019-02-25T06:30:17.343Z,72.00
2019-02-25T06:31:17.343Z,72.00
2019-02-25T06:32:17.330Z,76.00
2019-02-25T06:33:18.135Z,72.00
2019-02-25T06:34:17.516Z,76.00
2019-02-25T06:35:17.288Z,76.00
2019-02-25T06:36:17.278Z,72.00
2019-02-25T06:37:17.268Z,76.00
2019-02-25T06:38:17.262Z,76.00
2019-02-25T06:39:17.246Z,76.00
2019-02-25T06:40:17.422Z,76.00
2019-02-25T06:41:17.222Z,76.00
2019-02-25T06:42:17.235Z,76.00
2019-02-25T06:43:17.200Z,80.00
2019-02-25T06:44:17.191Z,76.00
2019-02-25T06:45:17.181Z,76.00
2019-02-25T06:46:17.293Z,80.00
2019-02-25T06:47:17.163Z,80.00
2019-02-25T06:48:17.147Z,76.00
2019-02-25T06:49:17.137Z,80.00
2019-02-25T06:50:17.178Z,80.00
2019-02-25T06:51:17.115Z,80.00
2019-02-25T06:52:17.228Z,80.00
2019-02-25T06:53:17.097Z,80.00
2019-02-25T06:54:17.081Z,80.00
2019-02-25T06:55:17.071Z,80.00
2019-02-25T06:56:17.061Z,80.00
2019-02-25T06:57:17.051Z,84.00
2019-02-25T06:58:17.247Z,80.00
2019-02-25T06:59:17.038Z,80.00
2019-02-25T07:00:17.018Z,80.00
2019-02-25T07:01:17.010Z,80.00
2019-02-25T07:02:16.994Z,72.00
2019-02-25T07:03:16.985Z,84.00
2019-02-25T07:04:17.092Z,88.00
2019-02-25T07:05:16.973Z,84.00
2019-02-25T07:06:16.954Z,88.00
2019-02-25T07:07:16.940Z,88.00
2019-02-25T07:08:16.934Z,88.00
2019-02-25T07:09:16.918Z,88.00
2019-02-25T07:10:17.014Z,88.00
2019-02-25T07:11:16.899Z,88.00
2019-02-25T07:12:16.886Z,88.00
2019-02-25T07:13:16.878Z,88.00
2019-02-25T07:14:16.867Z,88.00
2019-02-25T07:15:16.856Z,88.00
2019-02-25T07:16:17.186Z,92.00
2019-02-25T07:17:16.832Z,92.00
2019-02-25T07:18:16.821Z,88.00
2019-02-25T07:19:16.812Z,88.00
2019-02-25T07:20:16.800Z,88.00
2019-02-25T07:21:16.790Z,88.00
2019-02-25T07:22:16.885Z,84.00
2019-02-25T07:23:16.768Z,88.00
2019-02-25T07:24:16.770Z,88.00
2019-02-25T07:25:16.753Z,88.00
2019-02-25T07:26:16.734Z,88.00
2019-02-25T07:27:16.727Z,88.00
2019-02-25T07:28:16.820Z,88.00
2019-02-25T07:29:16.705Z,88.00
2019-02-25T07:30:16.689Z,88.00
2019-02-25T07:31:16.679Z,88.00
2019-02-25T07:32:16.669Z,88.00
2019-02-25T07:33:16.664Z,84.00
2019-02-25T07:34:16.923Z,84.00
2019-02-25T07:35:16.647Z,84.00
2019-02-25T07:36:16.626Z,88.00
2019-02-25T07:37:16.616Z,88.00
2019-02-25T07:38:16.609Z,84.00
2019-02-25T07:39:16.593Z,88.00
2019-02-25T07:40:16.689Z,92.00
2019-02-25T07:41:16.571Z,88.00
2019-02-25T07:42:16.561Z,88.00
2019-02-25T07:43:16.551Z,92.00
2019-02-25T07:44:16.585Z,88.00
2019-02-25T07:45:16.528Z,88.00
2019-02-25T07:46:16.631Z,88.00
2019-02-25T07:47:16.506Z,88.00
2019-02-25T07:48:16.517Z,84.00
2019-02-25T07:49:16.483Z,72.00
2019-02-25T07:50:16.474Z,68.00
2019-02-25T07:51:16.460Z,72.00
2019-02-25T07:52:16.657Z,80.00
2019-02-25T07:53:16.439Z,88.00
2019-02-25T07:54:16.430Z,96.00
2019-02-25T07:55:16.420Z,92.00
2019-02-25T07:56:16.408Z,96.00
2019-02-25T07:57:16.397Z,100.00
2019-02-25T07:58:16.500Z,100.00
2019-02-25T07:59:16.376Z,100.00
2019-02-25T08:00:16.363Z,100.00
2019-02-25T08:01:16.354Z,100.00
2019-02-25T08:02:16.343Z,84.00
2019-02-25T08:03:16.332Z,92.00
2019-02-25T08:04:16.420Z,96.00
2019-02-25T08:05:16.310Z,88.00
2019-02-25T08:06:16.319Z,88.00
2019-02-25T08:07:16.289Z,92.00
2019-02-25T08:08:16.278Z,92.00
2019-02-25T08:09:16.277Z,96.00
2019-02-25T08:10:16.464Z,104.00
2019-02-25T08:11:16.244Z,100.00
2019-02-25T08:12:16.234Z,112.00
2019-02-25T08:13:16.228Z,112.00
2019-02-25T08:14:16.214Z,112.00
2019-02-25T08:15:16.202Z,108.00
2019-02-25T08:16:16.361Z,100.00
2019-02-25T08:17:16.183Z,104.00
2019-02-25T08:18:16.169Z,112.00
2019-02-25T08:19:16.171Z,104.00
2019-02-25T08:20:16.149Z,104.00
2019-02-25T08:21:16.140Z,108.00
2019-02-25T08:22:16.228Z,120.00
2019-02-25T08:23:16.116Z,120.00
2019-02-25T08:24:16.103Z,120.00
2019-02-25T08:25:16.091Z,120.00
2019-02-25T08:26:16.082Z,116.00
2019-02-25T08:27:16.070Z,120.00
2019-02-25T08:28:16.155Z,120.00
2019-02-25T08:29:16.051Z,116.00
2019-02-25T08:30:16.037Z,116.00
2019-02-25T08:31:16.025Z,116.00
2019-02-25T08:32:16.016Z,112.00
2019-02-25T08:33:16.006Z,116.00
2019-02-25T08:34:18.571Z,116.00
2019-02-25T08:35:15.983Z,120.00
2019-02-25T08:36:15.973Z,112.00
2019-02-25T08:37:15.959Z,116.00
2019-02-25T08:38:15.950Z,116.00
2019-02-25T08:39:15.938Z,116.00
2019-02-25T08:40:16.040Z,120.00
2019-02-25T08:41:15.916Z,120.00
2019-02-25T08:42:15.909Z,120.00
2019-02-25T08:43:15.894Z,120.00
2019-02-25T08:44:15.885Z,120.00
2019-02-25T08:45:15.872Z,120.00
2019-02-25T08:46:16.068Z,124.00
2019-02-25T08:47:15.851Z,120.00
2019-02-25T08:48:15.840Z,124.00
2019-02-25T08:49:15.839Z,124.00
2019-02-25T08:50:15.831Z,128.00
2019-02-25T08:51:15.811Z,128.00
2019-02-25T08:52:15.970Z,124.00
2019-02-25T08:53:15.786Z,128.00
2019-02-25T08:54:15.775Z,128.00
2019-02-25T08:55:15.765Z,132.00
2019-02-25T08:56:15.755Z,128.00
2019-02-25T08:57:15.742Z,120.00
2019-02-25T08:58:15.833Z,128.00
2019-02-25T08:59:15.721Z,128.00
2019-02-25T09:00:15.709Z,128.00
2019-02-25T09:01:15.705Z,132.00
2019-02-25T09:02:15.694Z,128.00
2019-02-25T09:03:15.680Z,136.00
2019-02-25T09:04:15.780Z,128.00
2019-02-25T09:05:15.665Z,132.00
2019-02-25T09:06:15.652Z,140.00
2019-02-25T09:07:15.635Z,140.00
2019-02-25T09:08:15.625Z,132.00
2019-02-25T09:09:15.622Z,140.00
2019-02-25T09:10:15.943Z,140.00
2019-02-25T09:11:15.604Z,144.00
2019-02-25T09:12:15.581Z,144.00
2019-02-25T09:13:15.571Z,140.00
2019-02-25T09:14:15.560Z,140.00
2019-02-25T09:15:15.556Z,140.00
2019-02-25T09:16:15.660Z,144.00
2019-02-25T09:17:16.186Z,148.00
2019-02-25T09:18:15.518Z,148.00
2019-02-25T09:19:15.508Z,144.00
2019-02-25T09:20:15.498Z,148.00
2019-02-25T09:21:15.483Z,148.00
2019-02-25T09:22:15.595Z,148.00
2019-02-25T09:23:15.465Z,152.00
2019-02-25T09:24:15.451Z,152.00
2019-02-25T09:25:15.445Z,144.00
2019-02-25T09:26:15.430Z,156.00
2019-02-25T09:27:15.420Z,156.00
2019-02-25T09:28:15.507Z,156.00
2019-02-25T09:29:15.397Z,156.00
2019-02-25T09:30:15.387Z,160.00
2019-02-25T09:31:15.379Z,156.00
2019-02-25T09:32:15.365Z,156.00
2019-02-25T09:33:15.354Z,160.00
2019-02-25T09:34:15.449Z,160.00
2019-02-25T09:35:15.334Z,160.00
2019-02-25T09:36:15.325Z,160.00
2019-02-25T09:37:15.309Z,160.00
2019-02-25T09:38:15.299Z,164.00
2019-02-25T09:39:16.731Z,160.00
2019-02-25T09:40:15.376Z,164.00
2019-02-25T09:41:15.269Z,164.00
2019-02-25T09:42:15.257Z,168.00
2019-02-25T09:43:15.244Z,168.00
2019-02-25T09:44:15.233Z,172.00
2019-02-25T09:45:15.222Z,168.00
2019-02-25T09:46:15.396Z,172.00
2019-02-25T09:47:15.204Z,172.00
2019-02-25T09:48:15.190Z,172.00
2019-02-25T09:49:15.178Z,176.00
2019-02-25T09:50:15.173Z,176.00
2019-02-25T09:51:15.159Z,176.00
2019-02-25T09:52:15.425Z,180.00
2019-02-25T09:53:15.135Z,180.00
2019-02-25T09:54:15.128Z,176.00
2019-02-25T09:55:15.113Z,180.00
2019-02-25T09:56:15.104Z,180.00
2019-02-25T09:57:15.096Z,184.00
2019-02-25T09:58:15.180Z,180.00
2019-02-25T09:59:15.070Z,184.00
2019-02-25T10:00:15.061Z,184.00
2019-02-25T10:01:15.049Z,184.00
2019-02-25T10:02:15.038Z,188.00
2019-02-25T10:03:15.026Z,188.00
2019-02-25T10:04:15.276Z,188.00
2019-02-25T10:05:15.010Z,192.00
2019-02-25T10:06:15.000Z,192.00
2019-02-25T10:07:14.983Z,192.00
2019-02-25T10:08:14.976Z,192.00
2019-02-25T10:09:14.964Z,192.00
2019-02-25T10:10:15.053Z,196.00
2019-02-25T10:11:14.940Z,196.00
2019-02-25T10:12:14.931Z,196.00
2019-02-25T10:13:15.742Z,196.00
2019-02-25T10:14:14.910Z,200.00
2019-02-25T10:15:14.900Z,200.00
2019-02-25T10:16:15.159Z,192.00
2019-02-25T10:17:23.449Z,204.00
2019-02-25T10:18:15.863Z,204.00
2019-02-25T10:19:14.855Z,204.00
2019-02-25T10:20:14.846Z,204.00
2019-02-25T10:21:14.841Z,208.00
2019-02-25T10:22:14.957Z,208.00
2019-02-25T10:23:14.809Z,200.00
2019-02-25T10:24:14.799Z,208.00
2019-02-25T10:25:14.799Z,212.00
2019-02-25T10:26:14.782Z,216.00
2019-02-25T10:27:14.772Z,208.00
2019-02-25T10:28:14.872Z,212.00
2019-02-25T10:29:14.744Z,212.00
2019-02-25T10:30:14.748Z,188.00
2019-02-25T10:31:15.307Z,56.00
2019-02-25T10:32:14.714Z,60.00
2019-02-25T10:33:14.704Z,60.00
2019-02-25T10:34:15.634Z,56.00
2019-02-25T10:35:14.679Z,60.00
2019-02-25T10:36:14.670Z,60.00
2019-02-25T10:37:17.124Z,60.00
2019-02-25T10:38:14.663Z,56.00
2019-02-25T10:39:15.416Z,60.00
2019-02-25T10:40:15.471Z,60.00
2019-02-25T10:41:16.588Z,64.00
2019-02-25T10:42:14.601Z,60.00
2019-02-25T10:43:14.591Z,64.00
2019-02-25T10:44:14.583Z,64.00
2019-02-25T10:45:14.571Z,64.00
2019-02-25T10:46:16.030Z,64.00
2019-02-25T10:47:15.656Z,64.00
2019-02-25T10:48:15.188Z,64.00
2019-02-25T10:49:14.527Z,64.00
2019-02-25T10:50:14.519Z,60.00
2019-02-25T10:51:14.508Z,64.00
2019-02-25T10:52:16.801Z,64.00
2019-02-25T10:53:15.592Z,64.00
2019-02-25T10:54:15.310Z,64.00
2019-02-25T10:55:14.461Z,60.00
2019-02-25T10:56:16.658Z,68.00
2019-02-25T10:57:14.443Z,68.00
2019-02-25T10:58:14.680Z,68.00
2019-02-25T10:59:14.423Z,68.00
2019-02-25T11:00:14.408Z,68.00
2019-02-25T11:01:17.569Z,68.00
2019-02-25T11:02:17.387Z,68.00
2019-02-25T11:03:15.321Z,68.00
2019-02-25T11:04:15.371Z,72.00
2019-02-25T11:05:14.351Z,72.00
2019-02-25T11:06:14.369Z,72.00
2019-02-25T11:07:14.331Z,72.00
2019-02-25T11:08:14.355Z,72.00
2019-02-25T11:09:15.777Z,72.00
2019-02-25T11:10:16.059Z,72.00
2019-02-25T11:11:16.134Z,72.00
2019-02-25T11:12:14.277Z,72.00
2019-02-25T11:13:14.267Z,76.00
2019-02-25T11:14:14.261Z,76.00
2019-02-25T11:15:15.997Z,72.00
2019-02-25T11:16:16.042Z,76.00
2019-02-25T11:17:15.995Z,76.00
2019-02-25T11:18:14.212Z,76.00
2019-02-25T11:19:14.201Z,76.00
2019-02-25T11:20:15.045Z,76.00
2019-02-25T11:21:14.185Z,76.00
2019-02-25T11:22:16.241Z,76.00
2019-02-25T11:23:15.392Z,80.00
2019-02-25T11:24:14.484Z,80.00
2019-02-25T11:25:14.135Z,80.00
2019-02-25T11:26:14.126Z,80.00
2019-02-25T11:27:14.116Z,76.00
2019-02-25T11:28:24.876Z,80.00
2019-02-25T11:29:16.391Z,80.00
2019-02-25T11:30:14.780Z,80.00
2019-02-25T11:31:15.375Z,76.00
2019-02-25T11:32:14.063Z,76.00
2019-02-25T11:33:14.048Z,80.00
2019-02-25T11:34:14.383Z,108.00
2019-02-25T11:35:14.036Z,144.00
2019-02-25T11:36:15.419Z,112.00
2019-02-25T11:37:14.460Z,156.00
2019-02-25T11:38:14.008Z,152.00
2019-02-25T11:39:13.984Z,152.00
2019-02-25T11:40:14.166Z,152.00
2019-02-25T11:41:13.962Z,156.00
2019-02-25T11:42:17.698Z,156.00
2019-02-25T11:43:16.666Z,152.00
2019-02-25T11:44:13.933Z,156.00
2019-02-25T11:45:13.919Z,160.00
2019-02-25T11:46:14.009Z,160.00
2019-02-25T11:47:13.897Z,156.00
2019-02-25T11:48:13.888Z,160.00
2019-02-25T11:49:13.875Z,152.00
2019-02-25T11:50:13.866Z,160.00
2019-02-25T11:51:13.857Z,164.00
2019-02-25T11:52:17.365Z,160.00
2019-02-25T11:53:13.836Z,164.00
2019-02-25T11:54:13.829Z,164.00
2019-02-25T11:55:13.810Z,160.00
2019-02-25T11:56:13.840Z,164.00
2019-02-25T11:57:13.797Z,172.00
2019-02-25T11:58:13.889Z,172.00
2019-02-25T11:59:13.767Z,164.00
2019-02-25T12:00:13.757Z,168.00
2019-02-25T12:01:13.750Z,168.00
2019-02-25T12:02:13.759Z,164.00
2019-02-25T12:03:14.638Z,168.00
2019-02-25T12:04:13.816Z,172.00
2019-02-25T12:05:13.711Z,176.00
2019-02-25T12:06:13.692Z,172.00
2019-02-25T12:07:13.684Z,176.00
2019-02-25T12:08:13.681Z,176.00
2019-02-25T12:09:13.660Z,180.00
2019-02-25T12:10:13.917Z,176.00
2019-02-25T12:11:13.641Z,180.00
2019-02-25T12:12:13.629Z,180.00
2019-02-25T12:13:13.619Z,180.00
2019-02-25T12:14:13.605Z,180.00
2019-02-25T12:15:13.595Z,184.00
2019-02-25T12:16:13.787Z,184.00
2019-02-25T12:17:13.582Z,180.00
2019-02-25T12:18:13.608Z,184.00
2019-02-25T12:19:17.888Z,184.00
2019-02-25T12:20:13.542Z,184.00
2019-02-25T12:21:13.537Z,184.00
2019-02-25T12:22:13.627Z,184.00
2019-02-25T12:23:13.518Z,188.00
2019-02-25T12:24:13.502Z,188.00
2019-02-25T12:25:13.485Z,184.00
2019-02-25T12:26:13.476Z,192.00
2019-02-25T12:27:13.465Z,192.00
2019-02-25T12:28:13.646Z,192.00
2019-02-25T12:29:13.442Z,196.00
2019-02-25T12:30:13.433Z,196.00
2019-02-25T12:31:13.421Z,196.00
2019-02-25T12:32:13.412Z,200.00
2019-02-25T12:33:13.427Z,204.00
2019-02-25T12:34:13.496Z,204.00
2019-02-25T12:35:13.385Z,200.00
2019-02-25T12:36:13.818Z,204.00
2019-02-25T12:37:13.356Z,204.00
2019-02-25T12:38:13.364Z,208.00
2019-02-25T12:39:13.331Z,208.00
2019-02-25T12:40:13.439Z,212.00
2019-02-25T12:41:13.314Z,212.00
2019-02-25T12:42:13.302Z,216.00
2019-02-25T12:43:13.290Z,212.00
2019-02-25T12:44:13.280Z,220.00
2019-02-25T12:45:13.268Z,224.00
2019-02-25T12:46:13.466Z,228.00
2019-02-25T12:47:13.247Z,224.00
2019-02-25T12:48:13.235Z,228.00
2019-02-25T12:49:13.227Z,228.00
2019-02-25T12:50:13.216Z,232.00
2019-02-25T12:51:13.205Z,236.00
2019-02-25T12:52:13.296Z,236.00
2019-02-25T12:53:13.185Z,236.00
2019-02-25T12:54:13.175Z,236.00